sensor_id;sensor_type;location;lat;lon;timestamp;P1;durP1;ratioP1;P2;durP2;ratioP2
36599;SDS011;35385;55.668;37.508;2023-01-01T00:00:45;21.83;;;14.03;;
36599;SDS011;35385;55.668;37.508;2023-01-01T00:01:47;22.05;;;13.48;;
36599;SDS011;35385;55.668;37.508;2023-01-01T00:02:48;26.30;;;15.47;;
36599;SDS011;35385;55.668;37.508;2023-01-01T00:03:51;23.57;;;12.87;;
36599;SDS011;35385;55.668;37.508;2023-01-01T00:04:53;23.58;;;15.10;;
36599;SDS011;35385;55.668;37.508;2023-01-01T00:05:53;22.27;;;12.97;;
36599;SDS011;35385;55.668;37.508;2023-01-01T00:06:54;19.10;;;13.30;;
36599;SDS011;35385;55.668;37.508;2023-01-01T00:07:55;20.87;;;13.00;;
36599;SDS011;35385;55.668;37.508;2023-01-01T00:08:55;20.67;;;13.73;;
36599;SDS011;35385;55.668;37.508;2023-01-01T00:10:14;20.92;;;12.30;;
36599;SDS011;35385;55.668;37.508;2023-01-01T00:11:27;20.13;;;12.15;;
36599;SDS011;35385;55.668;37.508;2023-01-01T00:12:27;19.07;;;11.43;;
36599;SDS011;35385;55.668;37.508;2023-01-01T00:13:28;18.40;;;12.17;;
36599;SDS011;35385;55.668;37.508;2023-01-01T00:14:28;19.47;;;11.40;;
36599;SDS011;35385;55.668;37.508;2023-01-01T00:15:29;22.10;;;11.60;;
36599;SDS011;35385;55.668;37.508;2023-01-01T00:16:30;18.57;;;11.53;;
36599;SDS011;35385;55.668;37.508;2023-01-01T00:17:30;18.08;;;11.52;;
36599;SDS011;35385;55.668;37.508;2023-01-01T00:18:31;19.27;;;11.13;;
36599;SDS011;35385;55.668;37.508;2023-01-01T00:19:32;20.77;;;11.55;;
36599;SDS011;35385;55.668;37.508;2023-01-01T00:20:32;18.30;;;10.93;;
36599;SDS011;35385;55.668;37.508;2023-01-01T00:21:33;18.30;;;10.40;;
36599;SDS011;35385;55.668;37.508;2023-01-01T00:22:33;14.40;;;9.70;;
36599;SDS011;35385;55.668;37.508;2023-01-01T00:23:34;16.53;;;10.50;;
36599;SDS011;35385;55.668;37.508;2023-01-01T00:24:35;17.17;;;9.87;;
36599;SDS011;35385;55.668;37.508;2023-01-01T00:25:35;17.40;;;10.07;;
36599;SDS011;35385;55.668;37.508;2023-01-01T00:26:38;15.38;;;9.63;;
36599;SDS011;35385;55.668;37.508;2023-01-01T00:27:39;17.23;;;9.70;;
36599;SDS011;35385;55.668;37.508;2023-01-01T00:28:41;14.13;;;9.40;;
36599;SDS011;35385;55.668;37.508;2023-01-01T00:29:42;14.30;;;10.25;;
36599;SDS011;35385;55.668;37.508;2023-01-01T00:30:42;17.13;;;10.40;;
36599;SDS011;35385;55.668;37.508;2023-01-01T00:31:43;13.70;;;9.33;;
36599;SDS011;35385;55.668;37.508;2023-01-01T00:32:44;16.58;;;9.55;;
36599;SDS011;35385;55.668;37.508;2023-01-01T00:33:45;16.73;;;10.03;;
36599;SDS011;35385;55.668;37.508;2023-01-01T00:34:49;15.63;;;9.77;;
36599;SDS011;35385;55.668;37.508;2023-01-01T00:35:50;16.30;;;9.47;;
36599;SDS011;35385;55.668;37.508;2023-01-01T00:36:50;17.93;;;10.47;;
36599;SDS011;35385;55.668;37.508;2023-01-01T00:37:51;13.53;;;9.83;;
36599;SDS011;35385;55.668;37.508;2023-01-01T00:38:53;15.32;;;9.88;;
36599;SDS011;35385;55.668;37.508;2023-01-01T00:39:54;14.05;;;9.07;;
36599;SDS011;35385;55.668;37.508;2023-01-01T00:40:55;12.60;;;9.40;;
36599;SDS011;35385;55.668;37.508;2023-01-01T00:41:55;16.23;;;9.33;;
36599;SDS011;35385;55.668;37.508;2023-01-01T00:42:56;13.03;;;9.03;;
36599;SDS011;35385;55.668;37.508;2023-01-01T00:43:56;18.17;;;9.47;;
36599;SDS011;35385;55.668;37.508;2023-01-01T00:44:57;13.80;;;9.37;;
36599;SDS011;35385;55.668;37.508;2023-01-01T00:45:57;16.17;;;10.00;;
36599;SDS011;35385;55.668;37.508;2023-01-01T00:46:58;14.13;;;9.30;;
36599;SDS011;35385;55.668;37.508;2023-01-01T00:47:58;14.13;;;9.17;;
36599;SDS011;35385;55.668;37.508;2023-01-01T00:48:59;16.10;;;9.03;;
36599;SDS011;35385;55.668;37.508;2023-01-01T00:49:59;13.33;;;9.57;;
36599;SDS011;35385;55.668;37.508;2023-01-01T00:51:00;16.37;;;9.77;;
36599;SDS011;35385;55.668;37.508;2023-01-01T00:52:01;10.95;;;8.63;;
36599;SDS011;35385;55.668;37.508;2023-01-01T00:53:02;14.03;;;9.17;;
36599;SDS011;35385;55.668;37.508;2023-01-01T00:54:02;13.40;;;8.80;;
36599;SDS011;35385;55.668;37.508;2023-01-01T00:55:03;15.63;;;9.57;;
36599;SDS011;35385;55.668;37.508;2023-01-01T00:56:03;15.00;;;9.23;;
36599;SDS011;35385;55.668;37.508;2023-01-01T00:57:04;12.45;;;8.60;;
36599;SDS011;35385;55.668;37.508;2023-01-01T00:58:05;13.90;;;8.67;;
36599;SDS011;35385;55.668;37.508;2023-01-01T00:59:06;50.67;;;34.40;;
36599;SDS011;35385;55.668;37.508;2023-01-01T01:00:07;34.10;;;23.20;;
36599;SDS011;35385;55.668;37.508;2023-01-01T01:01:08;16.23;;;10.45;;
36599;SDS011;35385;55.668;37.508;2023-01-01T01:02:08;12.60;;;9.23;;
36599;SDS011;35385;55.668;37.508;2023-01-01T01:03:09;13.10;;;9.27;;
36599;SDS011;35385;55.668;37.508;2023-01-01T01:04:26;13.70;;;8.35;;
36599;SDS011;35385;55.668;37.508;2023-01-01T01:05:27;11.50;;;9.07;;
36599;SDS011;35385;55.668;37.508;2023-01-01T01:06:27;12.97;;;8.80;;
36599;SDS011;35385;55.668;37.508;2023-01-01T01:07:32;13.02;;;8.38;;
36599;SDS011;35385;55.668;37.508;2023-01-01T01:08:35;11.95;;;8.40;;
36599;SDS011;35385;55.668;37.508;2023-01-01T01:09:37;12.07;;;8.55;;
36599;SDS011;35385;55.668;37.508;2023-01-01T01:10:37;12.87;;;8.57;;
36599;SDS011;35385;55.668;37.508;2023-01-01T01:11:38;11.83;;;8.60;;
36599;SDS011;35385;55.668;37.508;2023-01-01T01:12:39;10.53;;;8.37;;
36599;SDS011;35385;55.668;37.508;2023-01-01T01:13:40;11.23;;;7.97;;
36599;SDS011;35385;55.668;37.508;2023-01-01T01:14:41;11.57;;;8.40;;
36599;SDS011;35385;55.668;37.508;2023-01-01T01:15:41;14.27;;;8.90;;
36599;SDS011;35385;55.668;37.508;2023-01-01T01:16:42;14.47;;;8.03;;
36599;SDS011;35385;55.668;37.508;2023-01-01T01:17:43;14.13;;;8.57;;
36599;SDS011;35385;55.668;37.508;2023-01-01T01:18:43;12.57;;;8.45;;
36599;SDS011;35385;55.668;37.508;2023-01-01T01:19:45;10.95;;;7.95;;
36599;SDS011;35385;55.668;37.508;2023-01-01T01:20:49;15.20;;;8.47;;
36599;SDS011;35385;55.668;37.508;2023-01-01T01:21:53;11.07;;;7.93;;
36599;SDS011;35385;55.668;37.508;2023-01-01T01:22:53;12.50;;;8.07;;
36599;SDS011;35385;55.668;37.508;2023-01-01T01:23:55;12.83;;;7.97;;
36599;SDS011;35385;55.668;37.508;2023-01-01T01:24:57;10.20;;;7.43;;
36599;SDS011;35385;55.668;37.508;2023-01-01T01:27:12;9.63;;;7.15;;
36599;SDS011;35385;55.668;37.508;2023-01-01T01:28:13;10.00;;;7.47;;
36599;SDS011;35385;55.668;37.508;2023-01-01T01:29:14;11.47;;;7.63;;
36599;SDS011;35385;55.668;37.508;2023-01-01T01:30:14;12.40;;;7.50;;
36599;SDS011;35385;55.668;37.508;2023-01-01T01:31:15;10.40;;;7.20;;
36599;SDS011;35385;55.668;37.508;2023-01-01T01:32:17;13.43;;;7.50;;
36599;SDS011;35385;55.668;37.508;2023-01-01T01:33:18;11.73;;;7.10;;
36599;SDS011;35385;55.668;37.508;2023-01-01T01:34:18;9.63;;;7.70;;
36599;SDS011;35385;55.668;37.508;2023-01-01T01:35:19;10.10;;;6.67;;
36599;SDS011;35385;55.668;37.508;2023-01-01T01:36:20;8.47;;;6.53;;
36599;SDS011;35385;55.668;37.508;2023-01-01T01:37:21;9.95;;;7.32;;
36599;SDS011;35385;55.668;37.508;2023-01-01T01:38:21;9.43;;;7.07;;
36599;SDS011;35385;55.668;37.508;2023-01-01T01:39:22;10.47;;;7.07;;
36599;SDS011;35385;55.668;37.508;2023-01-01T01:40:22;9.10;;;6.40;;
36599;SDS011;35385;55.668;37.508;2023-01-01T01:41:23;13.87;;;7.37;;
36599;SDS011;35385;55.668;37.508;2023-01-01T01:42:25;10.88;;;6.60;;
36599;SDS011;35385;55.668;37.508;2023-01-01T01:45:46;9.95;;;7.10;;
36599;SDS011;35385;55.668;37.508;2023-01-01T01:46:47;10.25;;;6.53;;
36599;SDS011;35385;55.668;37.508;2023-01-01T01:47:48;10.30;;;7.50;;
36599;SDS011;35385;55.668;37.508;2023-01-01T01:48:53;9.63;;;7.00;;
36599;SDS011;35385;55.668;37.508;2023-01-01T01:50:01;8.45;;;6.72;;
36599;SDS011;35385;55.668;37.508;2023-01-01T01:51:08;12.82;;;7.50;;
36599;SDS011;35385;55.668;37.508;2023-01-01T01:52:11;9.63;;;6.82;;
36599;SDS011;35385;55.668;37.508;2023-01-01T01:53:16;9.00;;;6.13;;
36599;SDS011;35385;55.668;37.508;2023-01-01T01:54:23;10.52;;;6.50;;
36599;SDS011;35385;55.668;37.508;2023-01-01T01:55:31;9.85;;;6.07;;
36599;SDS011;35385;55.668;37.508;2023-01-01T01:56:38;9.48;;;7.07;;
36599;SDS011;35385;55.668;37.508;2023-01-01T01:57:44;8.10;;;6.00;;
36599;SDS011;35385;55.668;37.508;2023-01-01T01:58:45;8.17;;;6.30;;
36599;SDS011;35385;55.668;37.508;2023-01-01T01:59:46;9.07;;;6.10;;
36599;SDS011;35385;55.668;37.508;2023-01-01T02:00:50;9.90;;;6.30;;
36599;SDS011;35385;55.668;37.508;2023-01-01T02:01:51;8.73;;;6.28;;
36599;SDS011;35385;55.668;37.508;2023-01-01T02:02:53;9.27;;;6.05;;
36599;SDS011;35385;55.668;37.508;2023-01-01T02:04:00;8.63;;;5.97;;
36599;SDS011;35385;55.668;37.508;2023-01-01T02:06:03;7.63;;;5.88;;
36599;SDS011;35385;55.668;37.508;2023-01-01T02:07:04;7.13;;;5.60;;
36599;SDS011;35385;55.668;37.508;2023-01-01T02:08:06;7.20;;;5.25;;
36599;SDS011;35385;55.668;37.508;2023-01-01T02:09:09;8.27;;;5.95;;
36599;SDS011;35385;55.668;37.508;2023-01-01T02:10:10;8.77;;;6.15;;
36599;SDS011;35385;55.668;37.508;2023-01-01T02:11:11;9.63;;;6.23;;
36599;SDS011;35385;55.668;37.508;2023-01-01T02:12:11;9.63;;;5.67;;
36599;SDS011;35385;55.668;37.508;2023-01-01T02:13:12;6.87;;;5.73;;
36599;SDS011;35385;55.668;37.508;2023-01-01T02:14:13;9.23;;;6.43;;
36599;SDS011;35385;55.668;37.508;2023-01-01T02:15:13;8.43;;;6.03;;
36599;SDS011;35385;55.668;37.508;2023-01-01T02:17:43;8.93;;;6.20;;
36599;SDS011;35385;55.668;37.508;2023-01-01T02:20:43;7.15;;;5.53;;
36599;SDS011;35385;55.668;37.508;2023-01-01T02:22:31;8.38;;;5.90;;
36599;SDS011;35385;55.668;37.508;2023-01-01T02:26:44;10.10;;;5.72;;
36599;SDS011;35385;55.668;37.508;2023-01-01T02:27:50;8.38;;;5.65;;
36599;SDS011;35385;55.668;37.508;2023-01-01T02:30:26;7.88;;;6.25;;
36599;SDS011;35385;55.668;37.508;2023-01-01T02:31:31;9.57;;;6.50;;
36599;SDS011;35385;55.668;37.508;2023-01-01T02:32:40;7.78;;;6.03;;
36599;SDS011;35385;55.668;37.508;2023-01-01T02:33:49;8.38;;;5.90;;
36599;SDS011;35385;55.668;37.508;2023-01-01T02:36:36;9.55;;;6.50;;
36599;SDS011;35385;55.668;37.508;2023-01-01T02:37:42;7.57;;;5.85;;
36599;SDS011;35385;55.668;37.508;2023-01-01T02:38:44;7.95;;;6.30;;
36599;SDS011;35385;55.668;37.508;2023-01-01T02:39:52;8.10;;;6.03;;
36599;SDS011;35385;55.668;37.508;2023-01-01T02:40:59;7.00;;;5.88;;
36599;SDS011;35385;55.668;37.508;2023-01-01T02:42:02;8.05;;;6.30;;
36599;SDS011;35385;55.668;37.508;2023-01-01T02:43:06;8.07;;;6.28;;
36599;SDS011;35385;55.668;37.508;2023-01-01T02:44:06;11.13;;;7.50;;
36599;SDS011;35385;55.668;37.508;2023-01-01T02:45:07;8.25;;;6.70;;
36599;SDS011;35385;55.668;37.508;2023-01-01T02:46:10;8.05;;;6.10;;
36599;SDS011;35385;55.668;37.508;2023-01-01T02:47:13;7.85;;;6.13;;
36599;SDS011;35385;55.668;37.508;2023-01-01T02:50:52;8.80;;;6.90;;
36599;SDS011;35385;55.668;37.508;2023-01-01T02:52:10;9.10;;;6.85;;
36599;SDS011;35385;55.668;37.508;2023-01-01T02:53:26;8.23;;;6.03;;
36599;SDS011;35385;55.668;37.508;2023-01-01T02:54:37;9.82;;;6.80;;
36599;SDS011;35385;55.668;37.508;2023-01-01T02:57:39;8.82;;;6.65;;
36599;SDS011;35385;55.668;37.508;2023-01-01T03:00:37;9.00;;;7.00;;
36599;SDS011;35385;55.668;37.508;2023-01-01T03:01:42;11.00;;;6.53;;
36599;SDS011;35385;55.668;37.508;2023-01-01T03:04:06;10.65;;;7.18;;
36599;SDS011;35385;55.668;37.508;2023-01-01T03:05:29;10.82;;;6.53;;
36599;SDS011;35385;55.668;37.508;2023-01-01T03:06:38;9.48;;;6.80;;
36599;SDS011;35385;55.668;37.508;2023-01-01T03:09:11;10.85;;;7.35;;
36599;SDS011;35385;55.668;37.508;2023-01-01T03:10:25;7.55;;;6.63;;
36599;SDS011;35385;55.668;37.508;2023-01-01T03:11:32;11.27;;;7.40;;
36599;SDS011;35385;55.668;37.508;2023-01-01T03:15:09;9.57;;;6.68;;
36599;SDS011;35385;55.668;37.508;2023-01-01T03:17:37;9.80;;;7.63;;
36599;SDS011;35385;55.668;37.508;2023-01-01T03:20:23;8.73;;;7.45;;
36599;SDS011;35385;55.668;37.508;2023-01-01T03:21:26;10.18;;;7.40;;
36599;SDS011;35385;55.668;37.508;2023-01-01T03:22:29;9.65;;;7.55;;
36599;SDS011;35385;55.668;37.508;2023-01-01T03:23:34;13.48;;;7.43;;
36599;SDS011;35385;55.668;37.508;2023-01-01T03:24:46;11.45;;;8.32;;
36599;SDS011;35385;55.668;37.508;2023-01-01T03:25:52;12.73;;;7.85;;
36599;SDS011;35385;55.668;37.508;2023-01-01T03:26:56;11.52;;;8.25;;
36599;SDS011;35385;55.668;37.508;2023-01-01T03:28:02;11.23;;;7.72;;
36599;SDS011;35385;55.668;37.508;2023-01-01T03:29:07;11.30;;;8.02;;
36599;SDS011;35385;55.668;37.508;2023-01-01T03:30:11;13.85;;;8.23;;
36599;SDS011;35385;55.668;37.508;2023-01-01T03:31:16;9.80;;;7.68;;
36599;SDS011;35385;55.668;37.508;2023-01-01T03:32:25;10.02;;;7.70;;
36599;SDS011;35385;55.668;37.508;2023-01-01T03:34:10;9.60;;;7.25;;
36599;SDS011;35385;55.668;37.508;2023-01-01T03:35:16;10.30;;;7.55;;
36599;SDS011;35385;55.668;37.508;2023-01-01T03:36:34;9.52;;;7.38;;
36599;SDS011;35385;55.668;37.508;2023-01-01T03:37:37;9.73;;;8.00;;
36599;SDS011;35385;55.668;37.508;2023-01-01T03:38:41;12.50;;;8.63;;
36599;SDS011;35385;55.668;37.508;2023-01-01T03:39:47;11.40;;;7.80;;
36599;SDS011;35385;55.668;37.508;2023-01-01T03:40:57;11.20;;;7.70;;
36599;SDS011;35385;55.668;37.508;2023-01-01T03:43:21;11.07;;;8.25;;
36599;SDS011;35385;55.668;37.508;2023-01-01T03:45:49;11.93;;;8.10;;
36599;SDS011;35385;55.668;37.508;2023-01-01T03:46:52;12.65;;;8.80;;
36599;SDS011;35385;55.668;37.508;2023-01-01T03:47:53;11.45;;;8.68;;
36599;SDS011;35385;55.668;37.508;2023-01-01T03:48:54;11.52;;;8.20;;
36599;SDS011;35385;55.668;37.508;2023-01-01T03:49:56;14.40;;;7.97;;
36599;SDS011;35385;55.668;37.508;2023-01-01T03:51:01;12.68;;;8.82;;
36599;SDS011;35385;55.668;37.508;2023-01-01T03:56:06;10.88;;;8.13;;
36599;SDS011;35385;55.668;37.508;2023-01-01T03:57:34;10.90;;;8.70;;
36599;SDS011;35385;55.668;37.508;2023-01-01T03:59:00;10.90;;;8.27;;
36599;SDS011;35385;55.668;37.508;2023-01-01T04:01:32;13.38;;;8.52;;
36599;SDS011;35385;55.668;37.508;2023-01-01T04:02:41;13.70;;;8.70;;
36599;SDS011;35385;55.668;37.508;2023-01-01T04:03:42;12.30;;;8.30;;
36599;SDS011;35385;55.668;37.508;2023-01-01T04:04:43;12.07;;;8.60;;
36599;SDS011;35385;55.668;37.508;2023-01-01T04:05:46;13.40;;;8.43;;
36599;SDS011;35385;55.668;37.508;2023-01-01T04:06:47;16.47;;;8.70;;
36599;SDS011;35385;55.668;37.508;2023-01-01T04:07:48;13.67;;;8.73;;
36599;SDS011;35385;55.668;37.508;2023-01-01T04:08:49;13.15;;;9.18;;
36599;SDS011;35385;55.668;37.508;2023-01-01T04:09:55;13.05;;;9.02;;
36599;SDS011;35385;55.668;37.508;2023-01-01T04:10:59;13.05;;;8.45;;
36599;SDS011;35385;55.668;37.508;2023-01-01T04:12:23;15.50;;;9.02;;
36599;SDS011;35385;55.668;37.508;2023-01-01T04:13:24;12.43;;;9.05;;
36599;SDS011;35385;55.668;37.508;2023-01-01T04:14:26;12.50;;;9.00;;
36599;SDS011;35385;55.668;37.508;2023-01-01T04:15:28;15.27;;;9.35;;
36599;SDS011;35385;55.668;37.508;2023-01-01T04:16:30;15.30;;;9.20;;
36599;SDS011;35385;55.668;37.508;2023-01-01T04:17:30;11.57;;;8.87;;
36599;SDS011;35385;55.668;37.508;2023-01-01T04:18:30;13.80;;;9.70;;
36599;SDS011;35385;55.668;37.508;2023-01-01T04:19:31;13.00;;;9.27;;
36599;SDS011;35385;55.668;37.508;2023-01-01T04:20:32;15.20;;;9.20;;
36599;SDS011;35385;55.668;37.508;2023-01-01T04:21:33;13.10;;;9.33;;
36599;SDS011;35385;55.668;37.508;2023-01-01T04:22:34;11.83;;;9.03;;
36599;SDS011;35385;55.668;37.508;2023-01-01T04:23:34;13.23;;;8.77;;
36599;SDS011;35385;55.668;37.508;2023-01-01T04:24:35;12.73;;;8.47;;
36599;SDS011;35385;55.668;37.508;2023-01-01T04:25:35;12.10;;;8.77;;
36599;SDS011;35385;55.668;37.508;2023-01-01T04:26:36;13.97;;;9.20;;
36599;SDS011;35385;55.668;37.508;2023-01-01T04:27:37;12.40;;;8.80;;
36599;SDS011;35385;55.668;37.508;2023-01-01T04:28:39;13.65;;;8.82;;
36599;SDS011;35385;55.668;37.508;2023-01-01T04:29:41;12.18;;;8.60;;
36599;SDS011;35385;55.668;37.508;2023-01-01T04:30:41;12.17;;;8.63;;
36599;SDS011;35385;55.668;37.508;2023-01-01T04:31:42;11.13;;;8.53;;
36599;SDS011;35385;55.668;37.508;2023-01-01T04:32:42;12.00;;;8.23;;
36599;SDS011;35385;55.668;37.508;2023-01-01T04:33:43;11.07;;;8.30;;
36599;SDS011;35385;55.668;37.508;2023-01-01T04:34:43;12.97;;;8.03;;
36599;SDS011;35385;55.668;37.508;2023-01-01T04:35:44;10.43;;;8.30;;
36599;SDS011;35385;55.668;37.508;2023-01-01T04:36:44;12.03;;;8.43;;
36599;SDS011;35385;55.668;37.508;2023-01-01T04:37:45;12.67;;;8.67;;
36599;SDS011;35385;55.668;37.508;2023-01-01T04:38:45;10.53;;;7.93;;
36599;SDS011;35385;55.668;37.508;2023-01-01T04:39:46;10.10;;;8.10;;
36599;SDS011;35385;55.668;37.508;2023-01-01T04:40:56;10.00;;;7.73;;
36599;SDS011;35385;55.668;37.508;2023-01-01T04:41:57;12.48;;;8.20;;
36599;SDS011;35385;55.668;37.508;2023-01-01T04:42:57;11.30;;;8.13;;
36599;SDS011;35385;55.668;37.508;2023-01-01T04:43:58;10.40;;;8.30;;
36599;SDS011;35385;55.668;37.508;2023-01-01T04:44:59;11.85;;;8.07;;
36599;SDS011;35385;55.668;37.508;2023-01-01T04:46:00;14.83;;;8.47;;
36599;SDS011;35385;55.668;37.508;2023-01-01T04:47:02;11.93;;;8.20;;
36599;SDS011;35385;55.668;37.508;2023-01-01T04:48:03;11.40;;;7.75;;
36599;SDS011;35385;55.668;37.508;2023-01-01T04:49:04;10.55;;;8.15;;
36599;SDS011;35385;55.668;37.508;2023-01-01T04:50:05;10.07;;;7.67;;
36599;SDS011;35385;55.668;37.508;2023-01-01T04:51:06;12.75;;;8.52;;
36599;SDS011;35385;55.668;37.508;2023-01-01T04:52:06;13.13;;;7.87;;
36599;SDS011;35385;55.668;37.508;2023-01-01T04:53:07;9.47;;;7.57;;
36599;SDS011;35385;55.668;37.508;2023-01-01T04:54:08;11.83;;;7.93;;
36599;SDS011;35385;55.668;37.508;2023-01-01T04:55:08;9.97;;;7.87;;
36599;SDS011;35385;55.668;37.508;2023-01-01T04:56:10;9.67;;;7.77;;
36599;SDS011;35385;55.668;37.508;2023-01-01T04:57:13;9.52;;;7.60;;
36599;SDS011;35385;55.668;37.508;2023-01-01T04:58:13;9.70;;;7.50;;
36599;SDS011;35385;55.668;37.508;2023-01-01T04:59:14;10.53;;;7.60;;
36599;SDS011;35385;55.668;37.508;2023-01-01T05:00:14;10.03;;;6.97;;
36599;SDS011;35385;55.668;37.508;2023-01-01T05:01:19;9.60;;;7.40;;
36599;SDS011;35385;55.668;37.508;2023-01-01T05:02:21;11.18;;;7.68;;
36599;SDS011;35385;55.668;37.508;2023-01-01T05:03:21;10.00;;;6.93;;
36599;SDS011;35385;55.668;37.508;2023-01-01T05:04:22;9.67;;;7.80;;
36599;SDS011;35385;55.668;37.508;2023-01-01T05:05:23;8.93;;;7.43;;
36599;SDS011;35385;55.668;37.508;2023-01-01T05:06:24;9.80;;;7.25;;
36599;SDS011;35385;55.668;37.508;2023-01-01T05:07:25;10.18;;;7.03;;
36599;SDS011;35385;55.668;37.508;2023-01-01T05:08:27;9.97;;;7.77;;
36599;SDS011;35385;55.668;37.508;2023-01-01T05:09:28;11.18;;;7.97;;
36599;SDS011;35385;55.668;37.508;2023-01-01T05:10:29;11.83;;;7.97;;
36599;SDS011;35385;55.668;37.508;2023-01-01T05:11:30;10.43;;;6.80;;
36599;SDS011;35385;55.668;37.508;2023-01-01T05:13:35;11.52;;;7.25;;
36599;SDS011;35385;55.668;37.508;2023-01-01T05:14:37;9.77;;;7.25;;
36599;SDS011;35385;55.668;37.508;2023-01-01T05:15:37;10.03;;;7.63;;
36599;SDS011;35385;55.668;37.508;2023-01-01T05:16:38;12.33;;;7.70;;
36599;SDS011;35385;55.668;37.508;2023-01-01T05:17:39;10.02;;;8.20;;
36599;SDS011;35385;55.668;37.508;2023-01-01T05:18:40;10.73;;;7.97;;
36599;SDS011;35385;55.668;37.508;2023-01-01T05:19:41;9.95;;;7.07;;
36599;SDS011;35385;55.668;37.508;2023-01-01T05:20:42;10.37;;;7.07;;
36599;SDS011;35385;55.668;37.508;2023-01-01T05:21:42;9.07;;;7.33;;
36599;SDS011;35385;55.668;37.508;2023-01-01T05:22:45;9.05;;;7.32;;
36599;SDS011;35385;55.668;37.508;2023-01-01T05:23:46;11.38;;;7.90;;
36599;SDS011;35385;55.668;37.508;2023-01-01T05:24:47;10.48;;;8.00;;
36599;SDS011;35385;55.668;37.508;2023-01-01T05:25:48;9.90;;;7.83;;
36599;SDS011;35385;55.668;37.508;2023-01-01T05:26:48;11.60;;;8.50;;
36599;SDS011;35385;55.668;37.508;2023-01-01T05:27:49;11.23;;;7.83;;
36599;SDS011;35385;55.668;37.508;2023-01-01T05:28:50;10.55;;;8.13;;
36599;SDS011;35385;55.668;37.508;2023-01-01T05:29:50;10.43;;;8.03;;
36599;SDS011;35385;55.668;37.508;2023-01-01T05:30:51;8.83;;;7.33;;
36599;SDS011;35385;55.668;37.508;2023-01-01T05:32:53;9.77;;;7.38;;
36599;SDS011;35385;55.668;37.508;2023-01-01T05:33:53;10.17;;;7.60;;
36599;SDS011;35385;55.668;37.508;2023-01-01T05:34:54;8.50;;;7.60;;
36599;SDS011;35385;55.668;37.508;2023-01-01T05:35:55;10.40;;;7.97;;
36599;SDS011;35385;55.668;37.508;2023-01-01T05:36:55;8.83;;;7.60;;
36599;SDS011;35385;55.668;37.508;2023-01-01T05:37:56;9.50;;;7.40;;
36599;SDS011;35385;55.668;37.508;2023-01-01T05:38:57;9.73;;;7.67;;
36599;SDS011;35385;55.668;37.508;2023-01-01T05:39:58;11.23;;;7.82;;
36599;SDS011;35385;55.668;37.508;2023-01-01T05:40:58;8.67;;;7.60;;
36599;SDS011;35385;55.668;37.508;2023-01-01T05:41:59;8.90;;;7.47;;
36599;SDS011;35385;55.668;37.508;2023-01-01T05:42:59;9.07;;;7.27;;
36599;SDS011;35385;55.668;37.508;2023-01-01T05:44:00;9.60;;;7.73;;
36599;SDS011;35385;55.668;37.508;2023-01-01T05:45:02;8.73;;;7.40;;
36599;SDS011;35385;55.668;37.508;2023-01-01T05:46:04;10.52;;;7.28;;
36599;SDS011;35385;55.668;37.508;2023-01-01T05:47:06;8.70;;;7.22;;
36599;SDS011;35385;55.668;37.508;2023-01-01T05:48:06;8.47;;;7.47;;
36599;SDS011;35385;55.668;37.508;2023-01-01T05:49:08;9.50;;;7.80;;
36599;SDS011;35385;55.668;37.508;2023-01-01T05:50:10;9.73;;;7.53;;
36599;SDS011;35385;55.668;37.508;2023-01-01T05:51:12;9.13;;;7.80;;
36599;SDS011;35385;55.668;37.508;2023-01-01T05:52:15;10.32;;;8.65;;
36599;SDS011;35385;55.668;37.508;2023-01-01T05:53:15;14.90;;;8.00;;
36599;SDS011;35385;55.668;37.508;2023-01-01T05:54:16;11.23;;;7.80;;
36599;SDS011;35385;55.668;37.508;2023-01-01T05:55:16;8.07;;;7.03;;
36599;SDS011;35385;55.668;37.508;2023-01-01T05:56:16;8.20;;;7.20;;
36599;SDS011;35385;55.668;37.508;2023-01-01T05:57:17;9.07;;;7.40;;
36599;SDS011;35385;55.668;37.508;2023-01-01T05:58:18;9.17;;;7.70;;
36599;SDS011;35385;55.668;37.508;2023-01-01T05:59:18;8.33;;;7.27;;
36599;SDS011;35385;55.668;37.508;2023-01-01T06:00:19;8.97;;;7.77;;
36599;SDS011;35385;55.668;37.508;2023-01-01T06:01:21;8.77;;;7.28;;
36599;SDS011;35385;55.668;37.508;2023-01-01T06:02:23;9.05;;;7.40;;
36599;SDS011;35385;55.668;37.508;2023-01-01T06:03:23;9.27;;;6.87;;
36599;SDS011;35385;55.668;37.508;2023-01-01T06:04:24;8.37;;;7.23;;
36599;SDS011;35385;55.668;37.508;2023-01-01T06:05:24;8.23;;;7.13;;
36599;SDS011;35385;55.668;37.508;2023-01-01T06:06:26;10.83;;;7.63;;
36599;SDS011;35385;55.668;37.508;2023-01-01T06:07:29;10.25;;;7.75;;
36599;SDS011;35385;55.668;37.508;2023-01-01T06:08:29;7.97;;;7.07;;
36599;SDS011;35385;55.668;37.508;2023-01-01T06:09:30;8.07;;;7.07;;
36599;SDS011;35385;55.668;37.508;2023-01-01T06:10:30;9.93;;;7.27;;
36599;SDS011;35385;55.668;37.508;2023-01-01T06:11:31;8.07;;;6.83;;
36599;SDS011;35385;55.668;37.508;2023-01-01T06:12:32;8.52;;;7.20;;
36599;SDS011;35385;55.668;37.508;2023-01-01T06:13:33;7.60;;;6.80;;
36599;SDS011;35385;55.668;37.508;2023-01-01T06:14:33;9.27;;;7.30;;
36599;SDS011;35385;55.668;37.508;2023-01-01T06:15:34;7.17;;;6.10;;
36599;SDS011;35385;55.668;37.508;2023-01-01T06:16:35;11.43;;;8.07;;
36599;SDS011;35385;55.668;37.508;2023-01-01T06:17:35;8.33;;;6.83;;
36599;SDS011;35385;55.668;37.508;2023-01-01T06:18:36;8.43;;;7.00;;
36599;SDS011;35385;55.668;37.508;2023-01-01T06:19:36;8.02;;;7.22;;
36599;SDS011;35385;55.668;37.508;2023-01-01T06:20:37;7.70;;;6.53;;
36599;SDS011;35385;55.668;37.508;2023-01-01T06:21:37;7.63;;;6.83;;
36599;SDS011;35385;55.668;37.508;2023-01-01T06:22:38;7.47;;;6.30;;
36599;SDS011;35385;55.668;37.508;2023-01-01T06:23:39;7.70;;;6.50;;
36599;SDS011;35385;55.668;37.508;2023-01-01T06:24:40;7.55;;;6.50;;
36599;SDS011;35385;55.668;37.508;2023-01-01T06:25:40;8.27;;;6.50;;
36599;SDS011;35385;55.668;37.508;2023-01-01T06:26:41;7.15;;;6.45;;
36599;SDS011;35385;55.668;37.508;2023-01-01T06:27:41;7.10;;;6.40;;
36599;SDS011;35385;55.668;37.508;2023-01-01T06:28:42;8.67;;;6.50;;
36599;SDS011;35385;55.668;37.508;2023-01-01T06:29:43;9.65;;;6.35;;
36599;SDS011;35385;55.668;37.508;2023-01-01T06:30:44;7.47;;;6.67;;
36599;SDS011;35385;55.668;37.508;2023-01-01T06:31:44;8.27;;;7.00;;
36599;SDS011;35385;55.668;37.508;2023-01-01T06:32:45;7.73;;;6.93;;
36599;SDS011;35385;55.668;37.508;2023-01-01T06:33:46;7.10;;;6.33;;
36599;SDS011;35385;55.668;37.508;2023-01-01T06:34:47;7.65;;;6.85;;
36599;SDS011;35385;55.668;37.508;2023-01-01T06:35:47;7.57;;;6.73;;
36599;SDS011;35385;55.668;37.508;2023-01-01T06:36:48;8.70;;;6.37;;
36599;SDS011;35385;55.668;37.508;2023-01-01T06:37:48;7.17;;;6.47;;
36599;SDS011;35385;55.668;37.508;2023-01-01T06:38:50;7.73;;;6.90;;
36599;SDS011;35385;55.668;37.508;2023-01-01T06:39:52;7.75;;;6.90;;
36599;SDS011;35385;55.668;37.508;2023-01-01T06:40:54;8.40;;;7.47;;
36599;SDS011;35385;55.668;37.508;2023-01-01T06:41:55;9.20;;;7.00;;
36599;SDS011;35385;55.668;37.508;2023-01-01T06:42:56;9.90;;;6.97;;
36599;SDS011;35385;55.668;37.508;2023-01-01T06:43:57;8.60;;;7.33;;
36599;SDS011;35385;55.668;37.508;2023-01-01T06:44:58;7.80;;;6.72;;
36599;SDS011;35385;55.668;37.508;2023-01-01T06:46:02;7.70;;;6.77;;
36599;SDS011;35385;55.668;37.508;2023-01-01T06:47:11;8.52;;;6.65;;
36599;SDS011;35385;55.668;37.508;2023-01-01T06:48:12;7.97;;;7.17;;